Time;durP1;ratioP1;P1;durP2;ratioP2;P2;SDS_P1;SDS_P2;PMS_P1;PMS_P2;Temp;Humidity;BMP_temperature;BMP_pressure;BME280_temperature;BME280_humidity;BME280_pressure;Samples;Min_cycle;Max_cycle;Signal;HPM_P1;HPM_P2
2022/06/06 00:01:54;;;;;;;4.20;3.20;;;;;;;;;;5017924;28;20041;-85
2022/06/06 00:04:21;;;;;;;5.35;3.10;;;;;;;;;;5004066;28;20038;-88
2022/06/06 00:06:47;;;;;;;7.65;3.40;;;;;;;;;;5018891;28;20033;-87
2022/06/06 00:09:14;;;;;;;6.53;3.25;;;;;;;;;;5003727;28;20041;-87
2022/06/06 00:11:40;;;;;;;5.00;3.50;;;;;;;;;;5006701;28;20041;-85
2022/06/06 00:14:06;;;;;;;8.07;4.90;;;;;;;;;;5000833;28;20099;-84
2022/06/06 00:16:32;;;;;;;4.90;3.35;;;;;;;;;;5012918;28;20037;-85
2022/06/06 00:18:57;;;;;;;5.10;3.08;;;;;;;;;;5001182;28;20552;-83
2022/06/06 00:21:23;;;;;;;4.93;3.15;;;;;;;;;;5020362;28;20034;-85
2022/06/06 00:23:49;;;;;;;5.57;3.30;;;;;;;;;;5003704;28;20030;-86
2022/06/06 00:26:15;;;;;;;4.93;3.20;;;;;;;;;;5017249;28;20040;-84
2022/06/06 00:28:44;;;;;;;5.90;3.28;;;;;;;;;;5023851;28;20037;-85
2022/06/06 00:36:39;;;;;;;5.53;3.50;;;;;;;;;;5018638;28;20060;-84
2022/06/06 00:39:07;;;;;;;6.10;3.63;;;;;;;;;;5007206;28;20042;-86
2022/06/06 00:41:40;;;;;;;5.18;3.70;;;;;;;;;;5001818;28;20051;-85
2022/06/06 00:44:08;;;;;;;4.80;3.42;;;;;;;;;;5004786;28;20504;-83
2022/06/06 00:46:37;;;;;;;5.63;3.33;;;;;;;;;;5019625;28;20496;-87
2022/06/06 00:49:03;;;;;;;4.90;3.55;;;;;;;;;;5004029;28;20065;-86
2022/06/06 00:51:30;;;;;;;4.53;3.50;;;;;;;;;;4982345;28;20101;-85
2022/06/06 00:53:55;;;;;;;5.18;3.92;;;;;;;;;;4988322;28;20092;-86
2022/06/06 00:56:48;;;;;;;6.00;3.75;;;;;;;;;;5003620;28;20030;-85
2022/06/06 00:59:17;;;;;;;5.63;4.00;;;;;;;;;;4976861;28;20049;-86
2022/06/06 01:01:43;;;;;;;5.28;3.72;;;;;;;;;;5000690;28;20121;-85
2022/06/06 01:04:11;;;;;;;4.88;3.88;;;;;;;;;;4997055;28;20580;-85
2022/06/06 01:06:42;;;;;;;5.18;3.80;;;;;;;;;;4981839;28;20034;-85
2022/06/06 01:09:09;;;;;;;6.90;3.78;;;;;;;;;;4998613;28;20065;-85
2022/06/06 01:11:41;;;;;;;5.13;3.80;;;;;;;;;;4979166;28;20501;-85
2022/06/06 01:14:09;;;;;;;7.13;4.22;;;;;;;;;;5003953;28;20117;-84
2022/06/06 01:17:00;;;;;;;5.93;3.80;;;;;;;;;;5000536;28;20037;-85
2022/06/06 01:19:59;;;;;;;5.55;3.83;;;;;;;;;;5003591;28;20061;-85
2022/06/06 01:22:46;;;;;;;6.43;3.83;;;;;;;;;;5011889;28;20584;-85
2022/06/06 01:25:35;;;;;;;5.05;3.83;;;;;;;;;;5018809;28;20049;-86
2022/06/06 01:28:43;;;;;;;5.95;3.78;;;;;;;;;;4999401;28;20509;-86
2022/06/06 01:31:14;;;;;;;6.22;4.00;;;;;;;;;;4999414;28;20081;-85
2022/06/06 01:33:56;;;;;;;6.00;3.72;;;;;;;;;;5014847;28;20137;-85
2022/06/06 01:36:23;;;;;;;6.28;3.80;;;;;;;;;;5000035;28;20096;-85
2022/06/06 01:38:49;;;;;;;5.38;4.10;;;;;;;;;;4999191;28;20038;-86
2022/06/06 01:41:30;;;;;;;5.80;3.83;;;;;;;;;;4983744;28;20037;-85
2022/06/06 01:44:02;;;;;;;6.65;4.40;;;;;;;;;;4995353;28;20041;-85
2022/06/06 01:46:30;;;;;;;5.28;3.70;;;;;;;;;;4998573;28;20340;-86
2022/06/06 01:48:56;;;;;;;4.88;3.90;;;;;;;;;;4996382;28;20690;-85
2022/06/06 01:51:27;;;;;;;6.03;4.40;;;;;;;;;;5006537;28;20550;-85
2022/06/06 01:53:53;;;;;;;6.05;4.03;;;;;;;;;;5017569;28;20401;-85
2022/06/06 01:56:22;;;;;;;5.32;3.65;;;;;;;;;;5012038;28;20061;-86
2022/06/06 01:58:47;;;;;;;5.40;3.75;;;;;;;;;;5006476;28;20563;-85
2022/06/06 02:01:13;;;;;;;6.85;4.30;;;;;;;;;;5014288;28;20033;-85
2022/06/06 02:03:38;;;;;;;6.72;3.95;;;;;;;;;;5017484;28;20440;-85
2022/06/06 02:06:04;;;;;;;5.07;3.70;;;;;;;;;;4998607;28;20401;-86
2022/06/06 02:08:31;;;;;;;4.80;3.35;;;;;;;;;;5015104;28;20112;-85
2022/06/06 02:10:57;;;;;;;5.90;4.20;;;;;;;;;;5002959;28;20124;-86
2022/06/06 02:13:22;;;;;;;6.60;3.97;;;;;;;;;;5000205;28;20576;-86
2022/06/06 02:15:48;;;;;;;5.78;4.13;;;;;;;;;;5003542;28;20038;-85
2022/06/06 02:18:13;;;;;;;5.13;3.85;;;;;;;;;;5019767;28;20038;-85
2022/06/06 02:20:39;;;;;;;6.18;4.38;;;;;;;;;;5010338;28;20392;-85
2022/06/06 02:23:05;;;;;;;5.70;4.45;;;;;;;;;;5006615;28;20046;-85
2022/06/06 02:25:31;;;;;;;5.85;4.22;;;;;;;;;;5009673;28;20058;-85
2022/06/06 02:27:57;;;;;;;7.00;4.25;;;;;;;;;;5002976;28;20030;-85
2022/06/06 02:30:25;;;;;;;5.65;4.28;;;;;;;;;;5018321;28;20156;-87
2022/06/06 02:32:50;;;;;;;6.28;4.50;;;;;;;;;;5001641;28;20103;-85
2022/06/06 02:35:19;;;;;;;6.50;4.55;;;;;;;;;;5003087;28;20029;-85
2022/06/06 02:37:47;;;;;;;8.40;5.63;;;;;;;;;;5026104;28;21038;-85
2022/06/06 02:40:15;;;;;;;7.45;5.13;;;;;;;;;;5005140;28;20034;-86
2022/06/06 02:42:41;;;;;;;7.15;5.18;;;;;;;;;;5024578;28;20579;-86
2022/06/06 02:45:27;;;;;;;7.47;4.97;;;;;;;;;;5002740;28;20457;-86
2022/06/06 02:47:55;;;;;;;7.88;5.15;;;;;;;;;;4982160;28;20501;-86
2022/06/06 02:50:25;;;;;;;7.88;5.40;;;;;;;;;;4965592;28;20190;-85
2022/06/06 02:52:51;;;;;;;7.65;5.57;;;;;;;;;;4951736;28;20113;-85
2022/06/06 02:55:16;;;;;;;7.78;5.57;;;;;;;;;;4950150;28;20038;-85
2022/06/06 02:57:47;;;;;;;7.22;5.45;;;;;;;;;;4951655;28;20038;-86
2022/06/06 03:00:16;;;;;;;6.85;5.10;;;;;;;;;;4943243;28;20039;-85
2022/06/06 03:02:41;;;;;;;6.88;5.40;;;;;;;;;;4961765;28;20089;-85
2022/06/06 03:05:08;;;;;;;7.05;5.40;;;;;;;;;;4981747;28;20046;-85
2022/06/06 03:07:48;;;;;;;6.63;5.35;;;;;;;;;;4945279;28;20037;-85
2022/06/06 03:10:22;;;;;;;6.82;5.28;;;;;;;;;;4960531;28;20811;-86
2022/06/06 03:13:08;;;;;;;7.50;5.93;;;;;;;;;;4946742;28;20505;-85
2022/06/06 03:21:52;;;;;;;7.93;5.85;;;;;;;;;;4981290;28;20037;-84
2022/06/06 03:24:50;;;;;;;6.85;5.28;;;;;;;;;;4978649;28;20034;-85
2022/06/06 03:27:35;;;;;;;9.48;6.40;;;;;;;;;;5026329;28;20048;-88
2022/06/06 03:30:34;;;;;;;8.57;6.60;;;;;;;;;;5026127;28;20037;-86
2022/06/06 03:33:11;;;;;;;8.25;6.28;;;;;;;;;;5012986;28;20037;-83
2022/06/06 03:35:46;;;;;;;9.68;6.90;;;;;;;;;;5017560;28;20070;-84
2022/06/06 03:38:23;;;;;;;9.35;7.25;;;;;;;;;;5018894;28;20485;-86
2022/06/06 03:40:55;;;;;;;8.77;6.88;;;;;;;;;;5017804;28;20500;-86
2022/06/06 03:43:29;;;;;;;8.55;6.60;;;;;;;;;;5032496;28;20551;-87
2022/06/06 03:46:29;;;;;;;9.77;7.07;;;;;;;;;;5030937;28;20042;-87
2022/06/06 03:49:13;;;;;;;9.45;7.13;;;;;;;;;;5022982;28;20059;-87
2022/06/06 03:52:17;;;;;;;10.80;7.97;;;;;;;;;;5032645;28;20069;-87
2022/06/06 03:55:08;;;;;;;9.00;7.10;;;;;;;;;;5019220;28;20497;-88
2022/06/06 03:57:35;;;;;;;9.38;7.47;;;;;;;;;;5016465;28;20029;-88
2022/06/06 04:00:07;;;;;;;9.65;7.35;;;;;;;;;;5003620;28;20376;-86
2022/06/06 04:02:37;;;;;;;9.95;7.28;;;;;;;;;;5008491;28;20021;-86
2022/06/06 04:05:07;;;;;;;9.43;7.10;;;;;;;;;;5017256;28;20401;-86
2022/06/06 04:07:33;;;;;;;11.05;7.28;;;;;;;;;;5000901;28;20486;-86
2022/06/06 04:09:58;;;;;;;9.75;7.18;;;;;;;;;;5012059;28;20045;-86
2022/06/06 04:12:45;;;;;;;9.68;7.15;;;;;;;;;;5017719;28;20048;-83
2022/06/06 04:15:35;;;;;;;8.65;6.85;;;;;;;;;;5029742;28;20536;-86
2022/06/06 04:18:26;;;;;;;9.65;7.30;;;;;;;;;;5018178;28;20041;-86
2022/06/06 04:21:03;;;;;;;9.32;6.60;;;;;;;;;;5006914;28;20033;-85
2022/06/06 04:23:47;;;;;;;10.63;7.70;;;;;;;;;;5017957;28;20041;-86
2022/06/06 04:26:57;;;;;;;11.13;7.50;;;;;;;;;;5032590;28;20038;-88
2022/06/06 04:29:50;;;;;;;9.63;6.80;;;;;;;;;;5017749;28;20045;-86
2022/06/06 04:32:21;;;;;;;9.15;6.85;;;;;;;;;;5017610;28;20041;-87
2022/06/06 04:35:06;;;;;;;10.07;6.88;;;;;;;;;;5015942;28;20034;-87
2022/06/06 04:37:40;;;;;;;8.57;6.53;;;;;;;;;;5014451;28;20064;-87
2022/06/06 04:40:39;;;;;;;9.18;6.97;;;;;;;;;;5032782;28;20041;-87
2022/06/06 04:43:20;;;;;;;8.23;6.43;;;;;;;;;;5022711;28;20076;-88
2022/06/06 04:45:53;;;;;;;8.45;6.50;;;;;;;;;;5019878;28;20037;-88
2022/06/06 04:48:21;;;;;;;9.88;6.40;;;;;;;;;;5023038;28;20049;-88
2022/06/06 04:50:46;;;;;;;9.32;6.88;;;;;;;;;;5007823;28;20123;-87
2022/06/06 04:53:16;;;;;;;9.15;6.78;;;;;;;;;;5005708;28;20124;-89
2022/06/06 04:55:42;;;;;;;8.77;6.70;;;;;;;;;;5009858;28;20053;-88
2022/06/06 04:58:09;;;;;;;9.25;6.88;;;;;;;;;;5022297;28;20050;-89
2022/06/06 05:00:35;;;;;;;9.27;7.03;;;;;;;;;;5009703;28;20472;-88
2022/06/06 05:03:01;;;;;;;8.85;6.53;;;;;;;;;;5017715;28;20140;-90
2022/06/06 05:05:41;;;;;;;9.15;6.60;;;;;;;;;;5017271;28;20850;-88
2022/06/06 05:08:45;;;;;;;8.23;6.22;;;;;;;;;;5007999;28;20033;-87
2022/06/06 05:11:43;;;;;;;8.38;5.68;;;;;;;;;;4976975;28;20133;-89
2022/06/06 05:14:31;;;;;;;8.80;6.40;;;;;;;;;;4999375;28;20065;-91
2022/06/06 05:17:17;;;;;;;7.95;6.18;;;;;;;;;;5029729;28;20100;-88
2022/06/06 05:20:30;;;;;;;10.85;6.13;;;;;;;;;;5004678;28;20778;-87
2022/06/06 05:23:12;;;;;;;8.32;6.20;;;;;;;;;;4951716;28;20105;-86
2022/06/06 05:26:11;;;;;;;9.55;5.75;;;;;;;;;;4947263;28;20695;-89
2022/06/06 05:28:58;;;;;;;9.05;6.32;;;;;;;;;;4991095;28;20486;-87
2022/06/06 05:31:42;;;;;;;8.27;6.20;;;;;;;;;;5028955;28;20025;-88
2022/06/06 05:34:14;;;;;;;8.13;6.22;;;;;;;;;;5013889;28;20450;-90
2022/06/06 05:37:04;;;;;;;9.52;6.63;;;;;;;;;;5014625;28;20034;-89
2022/06/06 05:39:35;;;;;;;9.02;6.80;;;;;;;;;;4998926;28;20485;-90
2022/06/06 05:42:01;;;;;;;9.38;6.88;;;;;;;;;;5013572;28;20038;-90
2022/06/06 05:44:33;;;;;;;9.73;7.15;;;;;;;;;;5013706;28;20038;-89
2022/06/06 05:47:04;;;;;;;8.60;6.95;;;;;;;;;;5012637;28;20079;-90
2022/06/06 05:49:54;;;;;;;9.75;6.68;;;;;;;;;;5015287;28;20053;-92
2022/06/06 05:52:29;;;;;;;9.07;7.00;;;;;;;;;;4999313;28;20052;-81
2022/06/06 05:55:11;;;;;;;9.32;7.38;;;;;;;;;;5012567;28;20038;-81
2022/06/06 05:58:16;;;;;;;10.18;7.45;;;;;;;;;;5021054;28;20042;-81
2022/06/06 06:00:47;;;;;;;9.75;7.88;;;;;;;;;;4982191;28;20485;-80
2022/06/06 06:03:55;;;;;;;9.18;7.07;;;;;;;;;;5013321;28;20037;-81
2022/06/06 06:06:27;;;;;;;9.38;7.00;;;;;;;;;;4979141;28;20558;-81
2022/06/06 06:09:06;;;;;;;8.52;6.15;;;;;;;;;;5022641;28;20041;-82
2022/06/06 06:11:37;;;;;;;7.07;5.63;;;;;;;;;;5003874;28;20493;-80
2022/06/06 06:14:05;;;;;;;7.32;5.30;;;;;;;;;;5018395;28;20033;-80
2022/06/06 06:16:33;;;;;;;8.35;5.28;;;;;;;;;;5011627;28;20573;-81
2022/06/06 06:19:08;;;;;;;6.43;4.88;;;;;;;;;;5002676;28;20397;-81
2022/06/06 06:21:43;;;;;;;7.85;4.45;;;;;;;;;;5013472;28;20036;-81
2022/06/06 06:24:13;;;;;;;5.90;4.47;;;;;;;;;;5005334;28;20038;-81
2022/06/06 06:26:39;;;;;;;6.25;4.28;;;;;;;;;;4996914;28;20116;-81
2022/06/06 06:29:07;;;;;;;6.30;4.40;;;;;;;;;;5016272;28;20165;-82
2022/06/06 06:31:55;;;;;;;7.03;4.65;;;;;;;;;;4999547;28;20072;-82
2022/06/06 06:34:35;;;;;;;6.00;4.10;;;;;;;;;;5021500;28;20030;-81
2022/06/06 06:37:34;;;;;;;6.70;4.72;;;;;;;;;;5012952;28;20038;-82
2022/06/06 06:40:11;;;;;;;5.68;4.05;;;;;;;;;;5025923;28;20563;-82
2022/06/06 06:42:39;;;;;;;5.72;4.10;;;;;;;;;;5015727;28;20144;-82
2022/06/06 06:45:26;;;;;;;6.40;4.05;;;;;;;;;;5013395;28;20121;-83
2022/06/06 06:47:55;;;;;;;5.80;4.13;;;;;;;;;;5015387;28;20596;-81
2022/06/06 06:50:31;;;;;;;5.65;4.10;;;;;;;;;;5020254;28;20507;-80
2022/06/06 06:53:11;;;;;;;5.82;3.88;;;;;;;;;;5028225;28;20115;-81
2022/06/06 06:56:06;;;;;;;6.30;4.40;;;;;;;;;;5039542;28;20053;-82
2022/06/06 06:58:53;;;;;;;6.03;3.90;;;;;;;;;;5037748;28;20067;-82
2022/06/06 07:01:36;;;;;;;5.40;3.47;;;;;;;;;;5023475;28;20105;-80
2022/06/06 07:10:20;;;;;;;6.05;3.95;;;;;;;;;;5038103;28;20056;-82
2022/06/06 07:12:59;;;;;;;4.93;3.40;;;;;;;;;;5019566;28;20061;-83
2022/06/06 07:16:06;;;;;;;5.10;3.40;;;;;;;;;;5010972;28;20104;-81
2022/06/06 07:18:32;;;;;;;;;;;;;;;;;;5005086;28;20037;-82
2022/06/06 07:20:59;;;;;;;6.03;3.38;;;;;;;;;;5020844;28;19927;-80
2022/06/06 07:23:26;;;;;;;6.00;3.15;;;;;;;;;;5012115;28;20475;-79
2022/06/06 07:25:54;;;;;;;5.50;3.33;;;;;;;;;;5028962;28;20044;-82
2022/06/06 07:28:23;;;;;;;5.97;3.00;;;;;;;;;;5021871;28;20030;-80
2022/06/06 07:31:15;;;;;;;5.10;3.15;;;;;;;;;;5018466;28;20384;-79
2022/06/06 07:33:51;;;;;;;4.40;3.17;;;;;;;;;;5028087;28;20087;-82
2022/06/06 07:36:59;;;;;;;5.32;3.17;;;;;;;;;;5019491;28;20033;-81
2022/06/06 07:40:01;;;;;;;4.72;2.92;;;;;;;;;;4899998;29;20108;-82
2022/06/06 07:42:49;;;;;;;6.50;2.67;;;;;;;;;;4909454;28;20519;-81
2022/06/06 07:45:18;;;;;;;4.30;2.85;;;;;;;;;;5013774;28;20042;-81
2022/06/06 07:48:22;;;;;;;3.75;2.40;;;;;;;;;;5039789;28;20044;-80
2022/06/06 07:51:32;;;;;;;4.78;2.78;;;;;;;;;;5037116;28;20480;-80
2022/06/06 07:54:37;;;;;;;3.95;2.55;;;;;;;;;;4998436;28;20037;-83
2022/06/06 07:57:08;;;;;;;4.47;2.78;;;;;;;;;;5035108;28;20090;-80
2022/06/06 07:59:55;;;;;;;4.63;2.72;;;;;;;;;;5019838;28;20032;-81
2022/06/06 08:02:20;;;;;;;;;;;;;;;;;;5020926;28;20487;-81
2022/06/06 08:04:58;;;;;;;4.87;2.87;;;;;;;;;;5017684;28;19917;-79
2022/06/06 08:07:46;;;;;;;4.93;2.80;;;;;;;;;;5035983;28;20509;-80
2022/06/06 08:10:33;;;;;;;4.90;2.65;;;;;;;;;;4955446;28;20128;-84
2022/06/06 08:13:27;;;;;;;6.18;2.20;;;;;;;;;;5018709;28;20038;-81
2022/06/06 08:15:52;;;;;;;3.40;1.98;;;;;;;;;;5018864;28;20041;-80
2022/06/06 08:18:30;;;;;;;3.80;2.07;;;;;;;;;;5037712;28;20557;-88
2022/06/06 08:21:02;;;;;;;4.47;2.28;;;;;;;;;;4992558;28;20952;-84
2022/06/06 08:23:32;;;;;;;3.70;1.98;;;;;;;;;;5030667;28;20501;-83
2022/06/06 08:25:59;;;;;;;3.58;2.00;;;;;;;;;;5007894;28;20495;-82
2022/06/06 08:28:25;;;;;;;3.63;1.90;;;;;;;;;;5027950;28;20484;-83
2022/06/06 08:30:50;;;;;;;4.13;2.25;;;;;;;;;;5019811;28;20034;-83
2022/06/06 08:33:15;;;;;;;3.88;2.00;;;;;;;;;;5000325;28;20034;-83
2022/06/06 08:35:59;;;;;;;3.50;1.80;;;;;;;;;;5021436;28;21125;-83
2022/06/06 08:38:49;;;;;;;3.10;1.92;;;;;;;;;;5016777;28;20036;-84
2022/06/06 08:41:41;;;;;;;5.43;2.10;;;;;;;;;;5017179;28;20129;-86
2022/06/06 08:44:25;;;;;;;3.75;2.00;;;;;;;;;;5032844;28;20076;-85
2022/06/06 08:46:56;;;;;;;3.28;2.00;;;;;;;;;;5019893;28;20037;-84
2022/06/06 08:53:04;;;;;;;4.20;2.13;;;;;;;;;;5021325;28;20118;-85
2022/06/06 08:55:39;;;;;;;3.15;2.03;;;;;;;;;;5014927;28;21033;-86
2022/06/06 08:58:34;;;;;;;3.30;1.83;;;;;;;;;;5023249;28;20440;-85
2022/06/06 09:01:29;;;;;;;5.22;1.75;;;;;;;;;;5016716;28;20145;-86
2022/06/06 09:04:04;;;;;;;3.00;1.70;;;;;;;;;;4997634;28;20091;-85
2022/06/06 09:06:51;;;;;;;3.25;1.55;;;;;;;;;;5016762;28;20489;-81
2022/06/06 09:09:44;;;;;;;2.95;1.63;;;;;;;;;;5022274;28;20558;-82
2022/06/06 09:12:24;;;;;;;5.28;2.00;;;;;;;;;;5013428;28;20042;-87
2022/06/06 09:14:49;;;;;;;3.45;1.63;;;;;;;;;;5016979;28;20116;-85
2022/06/06 09:17:21;;;;;;;3.00;1.53;;;;;;;;;;5016791;28;20121;-84
2022/06/06 09:20:25;;;;;;;3.05;1.80;;;;;;;;;;5013629;28;20818;-87
2022/06/06 09:23:24;;;;;;;2.83;1.60;;;;;;;;;;4988381;28;20032;-84
2022/06/06 09:26:33;;;;;;;2.30;1.10;;;;;;;;;;5030871;28;20060;-83
2022/06/06 09:29:23;;;;;;;3.47;1.30;;;;;;;;;;5017054;28;20034;-84
2022/06/06 09:32:00;;;;;;;2.25;1.27;;;;;;;;;;5014344;28;20121;-84
2022/06/06 09:34:28;;;;;;;2.63;1.60;;;;;;;;;;5017617;28;20340;-81
2022/06/06 09:37:18;;;;;;;3.45;1.50;;;;;;;;;;5015224;28;20050;-84
2022/06/06 09:40:15;;;;;;;3.47;1.50;;;;;;;;;;5030928;28;20030;-83
2022/06/06 09:43:08;;;;;;;2.75;1.55;;;;;;;;;;4987417;28;20402;-82
2022/06/06 09:45:42;;;;;;;3.35;1.73;;;;;;;;;;5003166;28;20080;-83
2022/06/06 09:48:45;;;;;;;3.10;1.77;;;;;;;;;;5021543;28;20042;-84
2022/06/06 09:51:35;;;;;;;2.80;1.60;;;;;;;;;;5013459;28;20468;-82
2022/06/06 10:00:00;;;;;;;3.67;1.70;;;;;;;;;;5015138;28;20036;-83
2022/06/06 10:02:35;;;;;;;4.60;1.70;;;;;;;;;;5016760;28;20034;-81
2022/06/06 10:05:03;;;;;;;3.10;1.60;;;;;;;;;;5030970;28;20157;-81
2022/06/06 10:07:50;;;;;;;2.97;1.70;;;;;;;;;;5015717;28;20041;-82
2022/06/06 10:10:27;;;;;;;3.08;1.70;;;;;;;;;;5014604;28;20588;-80
2022/06/06 10:12:58;;;;;;;3.92;1.67;;;;;;;;;;5030320;28;20045;-81
2022/06/06 10:15:32;;;;;;;3.20;1.67;;;;;;;;;;5017367;28;20048;-82
2022/06/06 10:18:16;;;;;;;4.18;1.67;;;;;;;;;;5022376;28;20048;-84
2022/06/06 10:20:56;;;;;;;4.45;1.98;;;;;;;;;;5029805;28;20038;-82
2022/06/06 10:23:54;;;;;;;3.65;1.90;;;;;;;;;;5018746;28;20432;-83
2022/06/06 10:26:31;;;;;;;3.50;1.83;;;;;;;;;;5019281;28;20042;-83
2022/06/06 10:28:59;;;;;;;;;;;;;;;;;;5027426;28;20492;-83
2022/06/06 10:31:34;;;;;;;3.25;1.77;;;;;;;;;;5020341;28;19925;-84
2022/06/06 10:34:29;;;;;;;3.22;1.77;;;;;;;;;;5019667;28;20045;-81
2022/06/06 10:37:06;;;;;;;3.03;1.58;;;;;;;;;;5019665;28;20091;-83
2022/06/06 10:39:36;;;;;;;3.17;1.73;;;;;;;;;;5021761;28;20073;-83
2022/06/06 10:42:18;;;;;;;2.53;1.35;;;;;;;;;;5016727;28;20041;-85
2022/06/06 10:45:04;;;;;;;2.72;1.42;;;;;;;;;;5017882;28;20977;-84
2022/06/06 10:47:54;;;;;;;3.08;1.70;;;;;;;;;;5015555;28;20062;-82
2022/06/06 10:51:36;;;;;;;3.38;1.60;;;;;;;;;;5017477;28;20429;-84
2022/06/06 10:53:33;;;;;;;;;;;;;;;;;;5019670;28;20071;-84
2022/06/06 10:56:06;;;;;;;3.90;1.80;;;;;;;;;;5001805;28;19963;-81
2022/06/06 10:58:37;;;;;;;2.55;1.50;;;;;;;;;;5005473;28;20041;-81
2022/06/06 11:01:20;;;;;;;2.50;1.33;;;;;;;;;;5013908;28;20045;-81
2022/06/06 11:04:10;;;;;;;2.72;1.63;;;;;;;;;;5035370;28;20739;-82
2022/06/06 11:06:53;;;;;;;2.70;1.50;;;;;;;;;;5025604;28;20037;-82
2022/06/06 11:09:29;;;;;;;2.55;1.20;;;;;;;;;;5016704;28;20033;-82
2022/06/06 11:12:19;;;;;;;2.00;1.10;;;;;;;;;;5017629;28;20126;-82
2022/06/06 11:14:45;;;;;;;3.00;1.20;;;;;;;;;;5026385;28;20512;-84
2022/06/06 11:17:22;;;;;;;3.60;1.20;;;;;;;;;;5014959;28;20034;-83
2022/06/06 11:20:25;;;;;;;2.20;1.02;;;;;;;;;;5015842;28;20490;-81
2022/06/06 11:23:02;;;;;;;3.03;1.38;;;;;;;;;;5017453;28;20033;-83
2022/06/06 11:25:54;;;;;;;2.70;1.30;;;;;;;;;;5020427;28;20041;-82
2022/06/06 11:28:28;;;;;;;3.47;1.30;;;;;;;;;;5033552;28;20109;-83
2022/06/06 11:31:15;;;;;;;3.47;1.38;;;;;;;;;;5016295;28;20051;-84
2022/06/06 11:34:30;;;;;;;2.28;1.15;;;;;;;;;;5024185;28;20492;-82
2022/06/06 11:37:20;;;;;;;2.40;1.40;;;;;;;;;;5006600;28;20042;-83
2022/06/06 11:40:31;;;;;;;6.13;1.50;;;;;;;;;;5032829;28;20037;-82
2022/06/06 11:43:12;;;;;;;3.08;1.35;;;;;;;;;;5017262;28;20041;-82
2022/06/06 11:46:13;;;;;;;2.38;1.20;;;;;;;;;;5018551;28;20026;-84
2022/06/06 11:48:44;;;;;;;2.40;1.33;;;;;;;;;;5017383;28;20045;-82
2022/06/06 11:51:29;;;;;;;2.72;1.08;;;;;;;;;;5019178;28;20552;-83
2022/06/06 11:54:23;;;;;;;3.42;1.40;;;;;;;;;;5033055;28;20042;-83
2022/06/06 11:57:18;;;;;;;2.50;1.40;;;;;;;;;;5031334;28;20119;-82
2022/06/06 12:00:41;;;;;;;3.10;1.50;;;;;;;;;;5018029;28;20030;-84
2022/06/06 12:03:25;;;;;;;2.97;1.40;;;;;;;;;;4954081;28;20046;-82
2022/06/06 12:06:03;;;;;;;4.30;1.73;;;;;;;;;;4956603;28;20462;-81
2022/06/06 12:08:59;;;;;;;5.35;1.70;;;;;;;;;;4997149;28;20026;-82
2022/06/06 12:11:34;;;;;;;2.97;1.42;;;;;;;;;;5032284;28;20452;-81
2022/06/06 12:14:37;;;;;;;2.75;1.50;;;;;;;;;;5016475;28;20124;-82
2022/06/06 12:17:29;;;;;;;2.80;1.50;;;;;;;;;;5017145;28;20610;-82
2022/06/06 12:20:03;;;;;;;3.50;1.67;;;;;;;;;;5000936;28;20037;-85
2022/06/06 12:22:44;;;;;;;4.63;1.70;;;;;;;;;;5015441;28;20088;-82
2022/06/06 12:25:31;;;;;;;3.10;1.50;;;;;;;;;;5013445;28;20545;-82
2022/06/06 12:27:59;;;;;;;4.13;1.60;;;;;;;;;;5014719;28;20048;-83
2022/06/06 12:30:56;;;;;;;3.10;1.77;;;;;;;;;;5015815;28;20047;-83
2022/06/06 12:33:34;;;;;;;4.10;1.58;;;;;;;;;;5013787;28;20115;-82
2022/06/06 12:36:14;;;;;;;3.22;1.60;;;;;;;;;;5005758;28;20509;-84
2022/06/06 12:38:54;;;;;;;3.05;1.63;;;;;;;;;;5016361;28;20037;-81
2022/06/06 12:41:43;;;;;;;3.13;1.48;;;;;;;;;;5013211;28;20069;-85
2022/06/06 12:44:31;;;;;;;3.78;1.70;;;;;;;;;;4998760;28;20099;-82
2022/06/06 12:47:09;;;;;;;5.05;1.70;;;;;;;;;;5018558;28;20507;-82
2022/06/06 12:50:00;;;;;;;3.17;1.65;;;;;;;;;;5023041;28;20370;-84
2022/06/06 12:53:02;;;;;;;3.28;1.50;;;;;;;;;;5014399;28;20029;-84
2022/06/06 12:58:51;;;;;;;2.80;1.50;;;;;;;;;;5015816;28;20048;-82
2022/06/06 13:01:38;;;;;;;4.30;1.45;;;;;;;;;;5006032;28;20045;-82
2022/06/06 13:04:09;;;;;;;3.30;1.55;;;;;;;;;;5012313;28;20041;-83
2022/06/06 13:06:53;;;;;;;3.00;1.45;;;;;;;;;;5013071;28;20033;-82
2022/06/06 13:09:22;;;;;;;3.38;1.60;;;;;;;;;;5016300;28;20125;-85
2022/06/06 13:12:01;;;;;;;2.70;1.23;;;;;;;;;;4998463;28;20103;-82
2022/06/06 13:14:48;;;;;;;3.10;1.40;;;;;;;;;;5017661;28;20389;-82
2022/06/06 13:17:25;;;;;;;5.97;1.60;;;;;;;;;;5013553;28;20502;-81
2022/06/06 13:20:10;;;;;;;2.60;1.27;;;;;;;;;;5015872;28;20540;-84
2022/06/06 13:22:51;;;;;;;2.78;1.40;;;;;;;;;;5014437;28;20120;-83
2022/06/06 13:25:22;;;;;;;2.75;1.15;;;;;;;;;;5012602;28;20042;-84
2022/06/06 13:27:56;;;;;;;2.63;1.30;;;;;;;;;;5015931;28;20052;-83
2022/06/06 13:30:28;;;;;;;3.00;1.40;;;;;;;;;;5014009;28;20516;-82
2022/06/06 13:32:57;;;;;;;4.03;1.33;;;;;;;;;;5003184;28;20045;-81
2022/06/06 13:35:37;;;;;;;4.82;1.70;;;;;;;;;;5008983;28;20044;-81
2022/06/06 13:38:14;;;;;;;5.65;1.70;;;;;;;;;;5017282;28;20531;-81
2022/06/06 13:40:42;;;;;;;3.42;1.70;;;;;;;;;;5011401;28;20072;-83
2022/06/06 13:43:25;;;;;;;5.07;1.60;;;;;;;;;;5006229;28;20041;-83
2022/06/06 13:46:26;;;;;;;2.58;1.40;;;;;;;;;;5020749;28;20084;-83
2022/06/06 13:49:20;;;;;;;3.70;1.92;;;;;;;;;;5015357;28;20042;-83
2022/06/06 13:52:04;;;;;;;3.33;1.95;;;;;;;;;;5021538;28;20098;-84
2022/06/06 13:54:38;;;;;;;3.00;1.50;;;;;;;;;;5015442;28;20033;-83
2022/06/06 13:57:28;;;;;;;3.05;1.40;;;;;;;;;;5021721;28;20465;-81
2022/06/06 14:00:18;;;;;;;3.05;1.40;;;;;;;;;;5023030;28;20046;-83
2022/06/06 14:03:21;;;;;;;2.17;1.17;;;;;;;;;;5015181;28;20532;-82
2022/06/06 14:05:49;;;;;;;2.78;1.33;;;;;;;;;;5011789;28;20041;-82
2022/06/06 14:08:16;;;;;;;3.17;1.50;;;;;;;;;;5029552;28;20036;-82
2022/06/06 14:10:44;;;;;;;;;;;;;;;;;;5014748;28;20038;-82
2022/06/06 14:13:22;;;;;;;2.83;1.50;;;;;;;;;;5030184;28;20249;-83
2022/06/06 14:15:47;;;;;;;4.30;1.52;;;;;;;;;;4997470;28;20382;-83
2022/06/06 14:18:21;;;;;;;2.78;1.50;;;;;;;;;;5006087;28;20336;-83
2022/06/06 14:20:53;;;;;;;2.83;1.45;;;;;;;;;;5021249;28;20080;-84
2022/06/06 14:23:25;;;;;;;3.92;1.38;;;;;;;;;;5021911;28;20470;-82
2022/06/06 14:25:56;;;;;;;2.50;1.17;;;;;;;;;;5016746;28;20042;-82
2022/06/06 14:28:25;;;;;;;3.70;1.48;;;;;;;;;;5015148;28;20045;-82
2022/06/06 14:30:50;;;;;;;2.85;1.30;;;;;;;;;;5030681;28;20044;-82
2022/06/06 14:33:35;;;;;;;2.63;1.30;;;;;;;;;;5020015;28;20046;-83
2022/06/06 14:36:21;;;;;;;2.55;1.30;;;;;;;;;;4995915;28;20103;-83
2022/06/06 14:39:00;;;;;;;2.80;1.37;;;;;;;;;;5001862;28;20083;-83
2022/06/06 14:41:58;;;;;;;3.35;1.48;;;;;;;;;;5016369;28;20036;-83
2022/06/06 14:44:30;;;;;;;2.33;1.15;;;;;;;;;;4970451;28;20057;-83
2022/06/06 14:47:14;;;;;;;2.72;1.17;;;;;;;;;;5004519;28;20509;-84
2022/06/06 14:49:44;;;;;;;3.28;1.42;;;;;;;;;;5021872;28;20052;-81
2022/06/06 14:52:17;;;;;;;2.88;1.35;;;;;;;;;;5012829;28;20058;-85
2022/06/06 14:55:02;;;;;;;3.00;1.55;;;;;;;;;;4996251;28;20053;-85
2022/06/06 14:57:30;;;;;;;3.17;1.55;;;;;;;;;;5003966;28;20057;-83
2022/06/06 14:59:55;;;;;;;2.92;1.70;;;;;;;;;;5006306;28;20030;-83
2022/06/06 15:02:24;;;;;;;2.47;1.30;;;;;;;;;;5002142;28;20358;-82
2022/06/06 15:05:14;;;;;;;3.47;1.58;;;;;;;;;;5022991;28;20033;-83
2022/06/06 15:07:58;;;;;;;3.88;1.70;;;;;;;;;;5021554;28;20060;-83
2022/06/06 15:10:47;;;;;;;3.17;1.60;;;;;;;;;;5002164;28;20121;-83
2022/06/06 15:13:13;;;;;;;3.20;1.92;;;;;;;;;;5020961;28;20045;-83
2022/06/06 15:15:39;;;;;;;3.50;1.80;;;;;;;;;;5007112;28;20127;-81
2022/06/06 15:18:06;;;;;;;4.40;2.03;;;;;;;;;;5017993;28;20030;-82
2022/06/06 15:20:34;;;;;;;3.70;1.85;;;;;;;;;;5002095;28;20524;-82
2022/06/06 15:23:15;;;;;;;3.30;1.70;;;;;;;;;;5022558;28;20049;-82
2022/06/06 15:25:55;;;;;;;3.80;2.00;;;;;;;;;;5007488;28;20912;-81
2022/06/06 15:28:31;;;;;;;4.03;2.28;;;;;;;;;;5006006;28;20112;-82
2022/06/06 15:31:09;;;;;;;4.97;2.03;;;;;;;;;;5004885;28;20653;-84
2022/06/06 15:34:05;;;;;;;6.60;2.05;;;;;;;;;;5019053;28;20045;-82
2022/06/06 15:36:38;;;;;;;3.20;1.80;;;;;;;;;;5000606;28;20553;-81
2022/06/06 15:39:16;;;;;;;4.65;2.00;;;;;;;;;;5007365;28;20485;-79
2022/06/06 15:41:44;;;;;;;4.25;1.77;;;;;;;;;;5016998;28;20064;-80
2022/06/06 15:44:28;;;;;;;3.78;1.58;;;;;;;;;;5019035;28;20038;-81
2022/06/06 15:47:01;;;;;;;5.10;1.88;;;;;;;;;;5023365;28;20444;-80
2022/06/06 15:49:32;;;;;;;4.53;1.80;;;;;;;;;;5008099;28;20049;-80
2022/06/06 15:52:08;;;;;;;3.78;1.70;;;;;;;;;;5029897;28;20049;-82
2022/06/06 15:54:45;;;;;;;3.28;1.60;;;;;;;;;;5031149;28;20393;-81
2022/06/06 15:57:32;;;;;;;5.63;2.10;;;;;;;;;;5015659;28;20049;-82
2022/06/06 16:00:37;;;;;;;3.47;1.70;;;;;;;;;;5023401;28;20046;-81
2022/06/06 16:03:25;;;;;;;3.50;1.70;;;;;;;;;;4980358;28;21082;-81
2022/06/06 16:05:52;;;;;;;4.20;1.88;;;;;;;;;;4978065;28;20113;-81
2022/06/06 16:08:19;;;;;;;4.20;2.20;;;;;;;;;;4983137;28;20048;-81
2022/06/06 16:10:56;;;;;;;4.75;2.10;;;;;;;;;;5021193;28;20060;-81
2022/06/06 16:13:50;;;;;;;5.13;1.90;;;;;;;;;;5017257;28;20037;-81
2022/06/06 16:16:35;;;;;;;5.65;1.83;;;;;;;;;;5006384;28;20358;-82
2022/06/06 16:19:30;;;;;;;3.97;2.00;;;;;;;;;;5015346;28;20038;-82
2022/06/06 16:22:21;;;;;;;3.60;1.90;;;;;;;;;;5018690;28;20041;-83
2022/06/06 16:24:50;;;;;;;4.13;1.95;;;;;;;;;;5020404;28;20041;-82